createdAt,value
2019-02-17T00:00:49.784Z,30.37
2019-02-17T00:05:53.918Z,28.57
2019-02-17T00:10:58.960Z,29.00
2019-02-17T00:16:04.383Z,27.13
2019-02-17T00:21:09.611Z,32.07
2019-02-17T00:26:15.294Z,29.20
2019-02-17T00:31:18.952Z,30.93
2019-02-17T00:36:22.912Z,33.80
2019-02-17T00:41:26.354Z,39.43
2019-02-17T00:46:30.156Z,39.57
2019-02-17T00:51:34.576Z,36.60
2019-02-17T00:56:38.440Z,34.30
2019-02-17T01:01:43.283Z,41.30
2019-02-17T01:06:46.794Z,37.60
2019-02-17T01:11:50.358Z,33.77
2019-02-17T01:16:53.870Z,33.93
2019-02-17T01:21:58.414Z,33.53
2019-02-17T01:27:01.881Z,37.87
2019-02-17T01:32:06.905Z,38.70
2019-02-17T01:37:12.200Z,39.93
2019-02-17T01:42:16.193Z,40.07
2019-02-17T01:47:19.986Z,33.40
2019-02-17T01:52:24.245Z,42.03
2019-02-17T01:57:29.201Z,42.17
2019-02-17T02:02:33.353Z,37.63
2019-02-17T02:07:37.380Z,38.53
2019-02-17T02:12:41.583Z,43.27
2019-02-17T02:17:45.823Z,36.80
2019-02-17T02:22:49.207Z,36.97
2019-02-17T02:27:55.635Z,36.23
2019-02-17T02:33:00.386Z,32.13
2019-02-17T02:38:05.345Z,35.97
2019-02-17T02:43:10.470Z,35.73
2019-02-17T02:48:13.816Z,29.67
2019-02-17T02:53:18.824Z,30.00
2019-02-17T02:58:23.516Z,32.00
2019-02-17T03:03:28.334Z,34.37
2019-02-17T03:08:33.058Z,32.83
2019-02-17T03:13:37.749Z,36.77
2019-02-17T03:18:42.854Z,35.20
2019-02-17T03:23:48.136Z,35.70
2019-02-17T03:28:54.641Z,35.80
2019-02-17T03:33:58.028Z,33.13
2019-02-17T03:39:04.938Z,38.03
2019-02-17T03:44:09.973Z,36.33
2019-02-17T03:49:14.600Z,34.27
2019-02-17T03:54:19.070Z,36.13
2019-02-17T03:59:23.685Z,35.13
2019-02-17T04:04:28.995Z,35.23
2019-02-17T04:09:33.274Z,36.40
2019-02-17T04:14:38.338Z,35.90
2019-02-17T04:19:43.341Z,30.80
2019-02-17T04:24:48.333Z,36.47
2019-02-17T04:29:54.751Z,40.40
2019-02-17T04:34:59.500Z,33.17
2019-02-17T04:40:04.745Z,32.37
2019-02-17T04:45:09.986Z,33.10
2019-02-17T04:50:14.833Z,32.53
2019-02-17T04:55:18.291Z,36.50
2019-02-17T05:00:22.927Z,33.93
2019-02-17T05:05:27.814Z,36.60
2019-02-17T05:10:32.853Z,29.50
2019-02-17T05:15:41.120Z,33.30
2019-02-17T05:20:46.060Z,29.97
2019-02-17T05:25:49.472Z,28.90
2019-02-17T05:30:54.425Z,31.87
2019-02-17T05:35:59.368Z,29.57
2019-02-17T05:41:03.880Z,29.47
2019-02-17T05:46:08.697Z,26.30
2019-02-17T05:51:13.885Z,27.37
2019-02-17T05:56:18.219Z,27.67
2019-02-17T06:01:22.686Z,30.00
2019-02-17T06:06:26.058Z,29.20
2019-02-17T06:11:30.161Z,30.43
2019-02-17T06:16:34.120Z,25.80
2019-02-17T06:21:37.583Z,29.47
2019-02-17T06:26:40.882Z,30.80
2019-02-17T06:31:44.305Z,32.07
2019-02-17T06:36:47.602Z,36.73
2019-02-17T06:41:51.180Z,31.53
2019-02-17T06:46:59.122Z,32.63
2019-02-17T06:52:02.943Z,40.50
2019-02-17T06:57:21.892Z,35.33
2019-02-17T07:02:26.273Z,34.03
2019-02-17T07:07:30.424Z,34.63
2019-02-17T07:12:34.644Z,37.63
2019-02-17T07:17:38.883Z,49.83
2019-02-17T07:22:43.874Z,52.50
2019-02-17T07:27:47.485Z,64.30
2019-02-17T07:32:53.015Z,56.27
2019-02-17T07:37:58.586Z,50.60
2019-02-17T07:43:04.294Z,52.70
2019-02-17T07:48:10.023Z,50.03
2019-02-17T07:53:16.486Z,47.33
2019-02-17T07:58:23.842Z,52.07
2019-02-17T08:03:29.280Z,50.50
2019-02-17T08:08:34.882Z,49.13
2019-02-17T08:13:39.843Z,51.10
2019-02-17T08:18:44.664Z,51.30
2019-02-17T08:23:49.730Z,52.70
2019-02-17T08:28:56.132Z,47.17
2019-02-17T08:40:10.407Z,63.63
2019-02-17T08:45:19.801Z,57.13
2019-02-17T08:50:24.929Z,53.20
2019-02-17T08:55:40.123Z,50.10
2019-02-17T09:00:45.483Z,54.03
2019-02-17T09:05:49.344Z,54.60
2019-02-17T09:10:54.916Z,58.97
2019-02-17T09:16:00.871Z,56.33
2019-02-17T09:21:06.078Z,53.73
2019-02-17T09:26:09.841Z,52.43
2019-02-17T09:31:13.294Z,55.80
2019-02-17T09:36:16.813Z,55.97
2019-02-17T09:41:20.501Z,52.00
2019-02-17T09:46:24.021Z,56.50
2019-02-17T09:51:29.575Z,59.00
2019-02-17T09:56:33.167Z,65.80
2019-02-17T10:01:37.403Z,56.67
2019-02-17T10:06:41.529Z,52.63
2019-02-17T10:11:45.883Z,52.93
2019-02-17T10:16:49.637Z,53.90
2019-02-17T10:21:53.881Z,51.63
2019-02-17T10:26:58.258Z,52.17
2019-02-17T10:32:01.813Z,55.20
2019-02-17T10:37:07.023Z,54.33
2019-02-17T10:42:11.879Z,52.07
2019-02-17T10:47:16.917Z,58.83
2019-02-17T10:52:21.639Z,55.87
2019-02-17T10:57:25.909Z,54.47
2019-02-17T11:02:29.778Z,55.67
2019-02-17T11:07:34.629Z,50.13
2019-02-17T11:12:38.807Z,45.30
2019-02-17T11:17:43.938Z,35.87
2019-02-17T11:22:47.762Z,34.27
2019-02-17T11:27:53.380Z,37.47
2019-02-17T11:32:59.276Z,43.70
2019-02-17T11:38:05.815Z,41.37
2019-02-17T11:43:11.193Z,48.20
2019-02-17T11:48:15.635Z,44.83
2019-02-17T11:53:20.258Z,45.80
2019-02-17T11:58:25.776Z,41.80
2019-02-17T12:03:30.885Z,41.00
2019-02-17T12:08:35.651Z,46.40
2019-02-17T12:13:40.389Z,44.60
2019-02-17T12:18:45.237Z,46.80
2019-02-17T12:24:08.744Z,44.77
2019-02-17T12:29:38.893Z,43.73
2019-02-17T12:34:44.622Z,46.90
2019-02-17T12:39:49.917Z,42.93
2019-02-17T12:44:57.167Z,46.67
2019-02-17T12:50:04.910Z,45.77
2019-02-17T12:55:10.815Z,45.43
2019-02-17T13:00:17.399Z,48.20
2019-02-17T13:05:22.803Z,47.63
2019-02-17T13:10:28.349Z,44.87
2019-02-17T13:15:33.503Z,45.33
2019-02-17T13:20:38.566Z,46.17
2019-02-17T13:25:42.077Z,43.73
2019-02-17T13:30:47.649Z,44.70
2019-02-17T13:35:52.373Z,46.27
2019-02-17T13:40:57.809Z,45.10
2019-02-17T13:46:03.595Z,44.93
2019-02-17T13:51:11.741Z,43.47
2019-02-17T13:56:18.647Z,40.57
2019-02-17T14:01:22.779Z,45.57
2019-02-17T14:06:28.569Z,46.60
2019-02-17T14:11:31.993Z,40.77
2019-02-17T14:16:35.498Z,44.40
2019-02-17T14:21:39.053Z,40.40
2019-02-17T14:26:43.773Z,43.20
2019-02-17T14:31:47.120Z,39.77
2019-02-17T14:36:51.168Z,33.93
2019-02-17T14:47:35.821Z,22.07
2019-02-17T14:52:40.192Z,18.40
2019-02-17T14:57:46.037Z,22.50
2019-02-17T15:02:51.863Z,16.30
2019-02-17T15:07:55.575Z,13.63
2019-02-17T15:13:01.002Z,13.53
2019-02-17T15:18:06.613Z,12.33
2019-02-17T15:23:12.005Z,15.60
2019-02-17T15:28:17.049Z,15.57
2019-02-17T15:33:22.351Z,12.27
2019-02-17T15:38:27.875Z,18.77
2019-02-17T15:43:33.865Z,13.87
2019-02-17T15:48:40.880Z,17.30
2019-02-17T15:53:46.773Z,16.30
2019-02-17T15:58:52.401Z,17.37
2019-02-17T16:03:57.708Z,18.63
2019-02-17T16:09:04.326Z,16.80
2019-02-17T16:14:10.571Z,17.97
2019-02-17T16:19:16.546Z,17.10
2019-02-17T16:24:21.875Z,19.17
2019-02-17T16:29:25.490Z,17.73
2019-02-17T16:34:38.195Z,18.80
2019-02-17T16:39:37.108Z,16.93
2019-02-17T16:57:15.564Z,19.20
2019-02-17T17:02:20.099Z,22.50
2019-02-17T17:07:25.661Z,20.57
2019-02-17T17:12:30.433Z,21.67
2019-02-17T17:17:36.292Z,20.67
2019-02-17T17:22:41.603Z,21.17
2019-02-17T17:27:46.837Z,18.40
2019-02-17T17:32:52.874Z,20.13
2019-02-17T17:37:57.943Z,16.23
2019-02-17T17:43:04.311Z,15.43
2019-02-17T17:48:10.187Z,17.63
2019-02-17T17:53:14.449Z,41.37
2019-02-17T17:58:19.979Z,30.00
2019-02-17T18:03:25.176Z,37.80
2019-02-17T18:08:30.202Z,20.07
2019-02-17T18:13:35.883Z,21.77
2019-02-17T18:18:40.657Z,19.53
2019-02-17T18:23:46.730Z,17.97
2019-02-17T18:28:51.934Z,19.73
2019-02-17T18:33:57.113Z,27.60
2019-02-17T18:39:02.890Z,42.93
2019-02-17T18:44:11.144Z,38.33
2019-02-17T18:49:16.327Z,39.10
2019-02-17T18:54:21.541Z,26.77
2019-02-17T18:59:26.720Z,31.40
2019-02-17T19:04:32.094Z,21.80
2019-02-17T19:09:37.165Z,25.60
2019-02-17T19:14:42.582Z,20.07
2019-02-17T19:19:47.593Z,20.50
2019-02-17T19:24:52.605Z,26.17
2019-02-17T19:29:57.853Z,21.07
2019-02-17T19:35:03.313Z,16.07
2019-02-17T19:40:10.511Z,17.33
2019-02-17T19:45:17.029Z,21.37
2019-02-17T19:50:22.267Z,19.33
2019-02-17T19:55:27.290Z,16.63
2019-02-17T20:00:32.661Z,21.10
2019-02-17T20:05:39.873Z,18.70
2019-02-17T20:10:46.173Z,16.17
2019-02-17T20:15:51.386Z,14.13
2019-02-17T20:20:56.154Z,15.40
2019-02-17T20:26:00.287Z,13.80
2019-02-17T20:31:06.780Z,11.87
2019-02-17T20:36:10.283Z,17.23
2019-02-17T20:41:14.953Z,18.30
2019-02-17T20:46:21.019Z,18.20
2019-02-17T20:51:25.303Z,20.10
2019-02-17T20:56:29.825Z,16.93
2019-02-17T21:01:34.327Z,17.47
2019-02-17T21:06:38.954Z,17.07
2019-02-17T21:11:43.939Z,17.90
2019-02-17T21:16:49.000Z,21.17
2019-02-17T21:21:54.257Z,16.67
2019-02-17T21:27:00.526Z,20.97
2019-02-17T21:32:05.298Z,17.50
2019-02-17T21:37:09.871Z,23.07
2019-02-17T21:42:14.011Z,24.10
2019-02-17T21:47:18.313Z,22.90
2019-02-17T21:52:23.529Z,24.03
2019-02-17T21:57:29.051Z,20.93
2019-02-17T22:02:34.837Z,21.50
2019-02-17T22:07:40.251Z,21.50
2019-02-17T22:12:45.554Z,23.07
2019-02-17T22:17:50.740Z,19.17
2019-02-17T22:22:56.109Z,16.10
2019-02-17T22:28:01.255Z,22.17
2019-02-17T22:33:06.529Z,18.23
2019-02-17T22:38:11.619Z,18.63
2019-02-17T22:43:17.925Z,20.40
2019-02-17T22:48:24.743Z,21.50
2019-02-17T22:53:30.003Z,19.67
2019-02-17T22:58:35.955Z,21.70
2019-02-17T23:03:41.593Z,21.00
2019-02-17T23:08:46.747Z,17.50
2019-02-17T23:13:52.651Z,24.60
2019-02-17T23:18:58.262Z,30.30
2019-02-17T23:24:03.378Z,19.97
2019-02-17T23:29:08.591Z,20.30
2019-02-17T23:34:13.913Z,19.13
2019-02-17T23:39:19.096Z,17.10
2019-02-17T23:44:24.253Z,17.60
2019-02-17T23:49:30.703Z,17.37
2019-02-17T23:54:34.934Z,18.87
2019-02-17T23:59:39.963Z,18.10
